createdAt,value
2022-08-16T00:00:20.403Z,14.70
2022-08-16T00:02:51.729Z,13.18
2022-08-16T00:05:21.641Z,14.52
2022-08-16T00:07:48.801Z,13.43
2022-08-16T00:10:25.841Z,15.07
2022-08-16T00:12:53.179Z,17.10
2022-08-16T00:15:51.498Z,18.85
2022-08-16T00:18:40.989Z,19.20
2022-08-16T00:21:08.098Z,10.90
2022-08-16T00:23:40.209Z,13.25
2022-08-16T00:26:35.069Z,18.27
2022-08-16T00:29:00.500Z,14.50
2022-08-16T00:31:59.464Z,19.40
2022-08-16T00:34:22.594Z,12.88
2022-08-16T00:37:10.385Z,16.23
2022-08-16T00:39:37.561Z,13.43
2022-08-16T00:42:10.088Z,14.57
2022-08-16T00:44:39.395Z,19.25
2022-08-16T00:47:16.299Z,13.85
2022-08-16T00:49:44.858Z,14.50
2022-08-16T00:52:30.507Z,14.13
2022-08-16T00:54:59.922Z,11.25
2022-08-16T00:57:44.521Z,13.45
2022-08-16T01:00:19.955Z,19.27
2022-08-16T01:02:51.701Z,14.65
2022-08-16T01:05:19.555Z,15.75
2022-08-16T01:07:53.310Z,17.15
2022-08-16T01:10:31.529Z,12.98
2022-08-16T01:13:15.110Z,19.38
2022-08-16T01:15:55.407Z,16.35
2022-08-16T01:18:40.695Z,16.40
2022-08-16T01:21:33.735Z,14.70
2022-08-16T01:24:51.754Z,12.77
2022-08-16T01:27:35.008Z,10.60
2022-08-16T01:30:32.505Z,12.55
2022-08-16T01:33:14.050Z,18.83
2022-08-16T01:35:52.799Z,20.50
2022-08-16T01:38:38.949Z,16.25
2022-08-16T01:41:21.954Z,16.00
2022-08-16T01:43:54.116Z,13.60
2022-08-16T01:46:38.445Z,19.13
2022-08-16T01:49:16.271Z,16.42
2022-08-16T01:51:51.814Z,20.83
2022-08-16T01:54:30.953Z,23.13
2022-08-16T01:56:59.637Z,15.32
2022-08-16T01:59:27.306Z,16.13
2022-08-16T02:02:00.336Z,15.45
2022-08-16T02:04:29.878Z,14.20
2022-08-16T02:07:18.501Z,15.50
2022-08-16T02:09:59.549Z,13.50
2022-08-16T02:12:50.882Z,13.87
2022-08-16T02:17:58.302Z,15.18
2022-08-16T02:20:34.006Z,13.80
2022-08-16T02:23:05.991Z,11.50
2022-08-16T02:25:52.334Z,20.63
2022-08-16T02:28:24.360Z,17.95
2022-08-16T02:30:53.778Z,18.48
2022-08-16T02:33:24.453Z,23.80
2022-08-16T02:36:14.395Z,11.55
2022-08-16T02:38:58.236Z,12.85
2022-08-16T02:41:25.458Z,19.23
2022-08-16T02:43:53.597Z,15.60
2022-08-16T02:46:21.137Z,17.38
2022-08-16T02:49:01.928Z,16.45
2022-08-16T02:51:29.278Z,18.33
2022-08-16T02:53:59.834Z,16.42
2022-08-16T02:56:32.119Z,17.48
2022-08-16T02:58:59.946Z,18.50
2022-08-16T03:01:37.154Z,16.45
2022-08-16T03:04:41.500Z,15.77
2022-08-16T03:06:56.656Z,22.35
2022-08-16T03:09:28.534Z,18.80
2022-08-16T03:11:57.304Z,22.20
2022-08-16T03:14:25.222Z,19.27
2022-08-16T03:16:59.134Z,17.25
2022-08-16T03:19:48.410Z,24.27
2022-08-16T03:22:29.166Z,17.92
2022-08-16T03:25:04.597Z,20.10
2022-08-16T03:27:35.387Z,16.85
2022-08-16T03:30:19.166Z,15.93
2022-08-16T03:32:51.342Z,15.63
2022-08-16T03:35:23.136Z,15.05
2022-08-16T03:38:02.646Z,18.47
2022-08-16T03:40:34.009Z,18.45
2022-08-16T03:43:19.847Z,15.80
2022-08-16T03:45:52.739Z,16.23
2022-08-16T03:48:37.050Z,18.00
2022-08-16T03:51:12.407Z,18.80
2022-08-16T03:53:41.948Z,20.92
2022-08-16T03:56:19.812Z,17.60
2022-08-16T03:59:02.917Z,15.18
2022-08-16T04:03:57.563Z,20.98
2022-08-16T04:06:24.817Z,21.73
2022-08-16T04:08:52.151Z,18.90
2022-08-16T04:11:20.268Z,20.95
2022-08-16T04:14:00.469Z,18.77
2022-08-16T04:16:36.282Z,19.48
2022-08-16T04:19:04.899Z,18.83
2022-08-16T04:21:46.011Z,16.05
2022-08-16T04:24:15.697Z,18.65
2022-08-16T04:26:46.397Z,16.50
2022-08-16T04:29:23.838Z,15.35
2022-08-16T04:31:56.201Z,48.95
2022-08-16T04:34:28.669Z,21.05
2022-08-16T04:37:01.078Z,18.30
2022-08-16T04:39:37.046Z,14.73
2022-08-16T04:42:17.463Z,20.67
2022-08-16T04:44:54.668Z,21.60
2022-08-16T04:47:31.320Z,18.88
2022-08-16T04:50:02.539Z,16.95
2022-08-16T04:52:33.990Z,19.38
2022-08-16T04:55:15.360Z,16.95
2022-08-16T04:57:43.516Z,26.45
2022-08-16T05:00:32.447Z,19.95
2022-08-16T05:03:08.697Z,17.77
2022-08-16T05:05:45.480Z,18.30
2022-08-16T05:08:29.916Z,16.10
2022-08-16T05:11:05.602Z,14.15
2022-08-16T05:13:41.451Z,15.15
2022-08-16T05:16:20.376Z,18.25
2022-08-16T05:18:52.965Z,17.27
2022-08-16T05:21:22.211Z,21.65
2022-08-16T05:23:58.657Z,17.98
2022-08-16T05:26:34.906Z,15.60
2022-08-16T05:29:05.531Z,23.15
2022-08-16T05:31:35.097Z,20.17
2022-08-16T05:34:04.338Z,19.85
2022-08-16T05:36:36.616Z,21.77
2022-08-16T05:39:09.802Z,16.75
2022-08-16T05:41:45.227Z,20.17
2022-08-16T05:44:26.577Z,18.15
2022-08-16T05:47:00.282Z,23.05
2022-08-16T05:49:39.286Z,19.85
2022-08-16T05:52:11.135Z,20.73
2022-08-16T05:54:47.152Z,22.08
2022-08-16T05:57:26.158Z,23.40
2022-08-16T06:00:08.965Z,23.80
2022-08-16T06:02:39.494Z,14.32
2022-08-16T06:05:10.849Z,13.68
2022-08-16T06:07:38.755Z,21.17
2022-08-16T06:10:09.659Z,25.25
2022-08-16T06:12:37.328Z,18.40
2022-08-16T06:15:11.659Z,14.25
2022-08-16T06:17:44.505Z,22.80
2022-08-16T06:20:24.320Z,20.30
2022-08-16T06:23:03.304Z,18.43
2022-08-16T06:25:36.124Z,21.83
2022-08-16T06:28:09.265Z,21.85
2022-08-16T06:30:43.290Z,19.75
2022-08-16T06:33:19.600Z,14.02
2022-08-16T06:35:50.613Z,20.02
2022-08-16T06:38:33.320Z,13.93
2022-08-16T06:41:13.645Z,15.05
2022-08-16T06:43:41.849Z,14.32
2022-08-16T06:46:21.884Z,19.58
2022-08-16T06:48:51.811Z,13.13
2022-08-16T06:51:18.867Z,13.95
2022-08-16T06:53:46.205Z,15.52
2022-08-16T06:56:23.387Z,16.73
2022-08-16T06:58:52.638Z,17.02
2022-08-16T07:01:43.271Z,12.75
2022-08-16T07:04:11.811Z,14.80
2022-08-16T07:06:43.306Z,16.25
2022-08-16T07:11:47.863Z,15.20
2022-08-16T07:14:23.765Z,16.10
2022-08-16T07:16:57.799Z,14.90
2022-08-16T07:19:33.648Z,15.07
2022-08-16T07:22:38.863Z,14.35
2022-08-16T07:25:04.432Z,19.70
2022-08-16T07:27:33.656Z,11.65
2022-08-16T07:30:01.291Z,12.20
2022-08-16T07:32:31.473Z,16.02
2022-08-16T07:34:59.364Z,12.17
2022-08-16T07:37:26.516Z,11.63
2022-08-16T07:39:54.829Z,18.42
2022-08-16T07:42:28.679Z,15.88
2022-08-16T07:45:07.513Z,15.70
2022-08-16T07:47:37.675Z,17.75
2022-08-16T07:50:07.852Z,11.32
2022-08-16T07:52:39.004Z,10.83
2022-08-16T07:57:38.074Z,9.60
2022-08-16T08:00:26.549Z,11.27
2022-08-16T08:02:55.650Z,14.80
2022-08-16T08:05:35.711Z,16.67
2022-08-16T08:08:20.512Z,8.95
2022-08-16T08:10:52.151Z,12.48
2022-08-16T08:13:19.240Z,12.80
2022-08-16T08:16:06.862Z,8.77
2022-08-16T08:18:49.850Z,10.55
2022-08-16T08:21:27.175Z,9.82
2022-08-16T08:23:57.698Z,10.52
2022-08-16T08:26:25.280Z,12.20
2022-08-16T08:28:52.760Z,9.68
2022-08-16T08:31:20.451Z,11.20
2022-08-16T08:33:51.460Z,13.27
2022-08-16T08:36:33.307Z,8.57
2022-08-16T08:39:00.722Z,11.05
2022-08-16T08:41:28.920Z,14.20
2022-08-16T08:43:57.690Z,11.18
2022-08-16T08:46:26.411Z,9.90
2022-08-16T08:49:00.197Z,9.88
2022-08-16T08:51:35.696Z,12.32
2022-08-16T08:54:06.739Z,15.77
2022-08-16T08:56:37.497Z,10.38
2022-08-16T08:59:13.011Z,12.10
2022-08-16T09:01:56.295Z,8.02
2022-08-16T09:04:28.650Z,10.85
2022-08-16T09:06:58.400Z,10.00
2022-08-16T09:09:25.858Z,9.40
2022-08-16T09:12:06.934Z,10.05
2022-08-16T09:14:49.640Z,8.32
2022-08-16T09:17:38.372Z,14.93
2022-08-16T09:20:13.508Z,9.00
2022-08-16T09:22:42.537Z,9.07
2022-08-16T09:25:12.955Z,11.35
2022-08-16T09:27:56.622Z,9.80
2022-08-16T09:30:33.796Z,9.55
2022-08-16T09:33:08.102Z,13.15
2022-08-16T09:35:38.789Z,12.90
2022-08-16T09:38:09.885Z,10.95
2022-08-16T09:40:44.059Z,7.90
2022-08-16T09:43:37.709Z,20.23
2022-08-16T09:46:46.072Z,8.27
2022-08-16T09:48:56.533Z,19.13
2022-08-16T09:51:26.281Z,8.73
2022-08-16T09:53:57.915Z,9.57
2022-08-16T09:56:31.542Z,8.95
2022-08-16T09:59:05.245Z,11.88
2022-08-16T10:01:36.559Z,10.85
2022-08-16T10:04:09.868Z,12.32
2022-08-16T10:06:56.655Z,9.13
2022-08-16T10:09:42.262Z,8.68
2022-08-16T10:12:34.954Z,8.30
2022-08-16T10:15:16.133Z,10.07
2022-08-16T10:18:01.454Z,10.45
2022-08-16T10:20:45.407Z,8.68
2022-08-16T10:23:18.304Z,8.00
2022-08-16T10:27:18.889Z,8.38
2022-08-16T10:28:39.512Z,8.48
2022-08-16T10:31:12.003Z,11.02
2022-08-16T10:33:44.499Z,9.35
2022-08-16T10:36:12.456Z,11.82
2022-08-16T10:38:59.627Z,12.25
2022-08-16T10:41:26.867Z,12.15
2022-08-16T10:43:54.362Z,9.18
2022-08-16T10:46:40.027Z,10.50
2022-08-16T10:49:12.496Z,9.85
2022-08-16T10:52:01.583Z,11.70
2022-08-16T10:54:31.350Z,16.52
2022-08-16T10:57:00.882Z,12.15
2022-08-16T10:59:47.038Z,15.27
2022-08-16T11:02:57.532Z,13.00
2022-08-16T11:05:14.716Z,12.60
2022-08-16T11:07:53.546Z,11.52
2022-08-16T11:19:06.250Z,13.80
2022-08-16T11:24:42.820Z,15.02
2022-08-16T11:27:23.843Z,9.68
2022-08-16T11:29:56.716Z,11.57
2022-08-16T11:32:31.925Z,11.90
2022-08-16T11:35:13.438Z,18.75
2022-08-16T11:43:36.982Z,11.90
2022-08-16T11:46:44.899Z,12.85
2022-08-16T11:48:58.204Z,11.02
2022-08-16T11:51:25.292Z,10.18
2022-08-16T11:53:52.710Z,10.68
2022-08-16T11:56:39.443Z,11.00
2022-08-16T11:59:08.085Z,10.48
2022-08-16T12:01:44.582Z,9.27
2022-08-16T12:04:23.610Z,13.82
2022-08-16T12:06:53.727Z,12.30
2022-08-16T12:09:22.167Z,12.63
2022-08-16T12:11:52.426Z,10.63
2022-08-16T12:14:22.871Z,9.95
2022-08-16T12:16:55.253Z,11.30
2022-08-16T12:19:33.739Z,10.63
2022-08-16T12:22:05.867Z,10.60
2022-08-16T12:24:52.297Z,13.52
2022-08-16T12:27:24.492Z,14.05
2022-08-16T12:29:54.047Z,11.55
2022-08-16T12:32:35.681Z,13.73
2022-08-16T12:35:10.180Z,9.60
2022-08-16T12:37:37.215Z,10.32
2022-08-16T12:40:24.619Z,9.48
2022-08-16T12:42:58.960Z,9.60
2022-08-16T12:45:31.206Z,14.02
2022-08-16T12:48:34.773Z,10.55
2022-08-16T12:51:13.522Z,13.73
2022-08-16T12:53:50.506Z,12.48
2022-08-16T12:56:21.035Z,11.25
2022-08-16T12:58:51.726Z,12.38
2022-08-16T13:01:29.022Z,5.55
2022-08-16T13:04:11.335Z,5.03
2022-08-16T13:06:42.104Z,5.28
2022-08-16T13:09:26.084Z,4.53
2022-08-16T13:12:23.359Z,4.03
2022-08-16T13:14:53.402Z,6.63
2022-08-16T13:17:29.821Z,2.30
2022-08-16T13:20:07.775Z,3.72
2022-08-16T13:22:45.911Z,3.70
2022-08-16T13:25:21.594Z,3.35
2022-08-16T13:28:15.204Z,6.32
2022-08-16T13:30:46.780Z,3.88
2022-08-16T13:33:24.835Z,13.13
2022-08-16T13:38:27.546Z,9.27
2022-08-16T13:41:00.677Z,13.38
2022-08-16T13:43:32.456Z,7.03
2022-08-16T13:46:04.594Z,9.00
2022-08-16T13:48:42.815Z,10.07
2022-08-16T13:51:18.790Z,9.23
2022-08-16T13:53:54.459Z,10.35
2022-08-16T13:56:34.499Z,8.10
2022-08-16T13:59:20.212Z,7.55
2022-08-16T14:01:56.699Z,9.68
2022-08-16T14:04:34.201Z,5.30
2022-08-16T14:07:05.157Z,5.30
2022-08-16T14:09:33.671Z,8.75
2022-08-16T14:12:09.726Z,7.20
2022-08-16T14:14:45.145Z,11.10
2022-08-16T14:17:16.474Z,7.25
2022-08-16T14:19:46.030Z,9.43
2022-08-16T14:22:31.443Z,9.27
2022-08-16T14:25:21.138Z,12.00
2022-08-16T14:27:52.449Z,9.50
2022-08-16T14:30:22.785Z,11.77
2022-08-16T14:32:51.773Z,11.02
2022-08-16T14:35:29.272Z,7.90
2022-08-16T14:38:05.500Z,8.60
2022-08-16T14:40:33.477Z,9.95
2022-08-16T14:43:07.249Z,11.77
2022-08-16T14:45:35.278Z,8.90
2022-08-16T14:48:03.220Z,10.65
2022-08-16T14:50:31.819Z,8.90
2022-08-16T14:53:09.603Z,8.50
2022-08-16T14:55:41.018Z,9.85
2022-08-16T14:58:10.429Z,11.30
2022-08-16T15:01:10.969Z,9.18
2022-08-16T15:03:38.324Z,10.80
2022-08-16T15:06:13.090Z,8.63
2022-08-16T15:08:41.441Z,8.98
2022-08-16T15:11:08.318Z,8.15
2022-08-16T15:13:35.818Z,11.20
2022-08-16T15:16:03.663Z,10.65
2022-08-16T15:18:32.301Z,9.50
2022-08-16T15:21:04.815Z,10.30
2022-08-16T15:23:33.653Z,10.10
2022-08-16T15:26:03.587Z,10.32
2022-08-16T15:28:32.866Z,12.10
2022-08-16T15:31:08.245Z,12.55
2022-08-16T15:33:43.396Z,13.80
2022-08-16T15:36:17.457Z,14.57
2022-08-16T15:39:02.810Z,14.15
2022-08-16T15:41:38.647Z,12.32
2022-08-16T15:44:10.353Z,12.90
2022-08-16T15:46:55.898Z,14.95
2022-08-16T15:49:37.414Z,10.32
2022-08-16T15:52:35.108Z,12.10
2022-08-16T15:55:24.012Z,12.23
2022-08-16T15:57:57.381Z,11.25
2022-08-16T16:00:26.557Z,12.23
2022-08-16T16:03:28.046Z,13.68
2022-08-16T16:06:01.530Z,13.27
2022-08-16T16:08:29.182Z,13.35
2022-08-16T16:10:59.792Z,14.57
2022-08-16T16:13:26.862Z,12.68
2022-08-16T16:15:56.191Z,13.52
2022-08-16T16:18:26.123Z,15.23
2022-08-16T16:20:56.236Z,16.00
2022-08-16T16:23:26.869Z,9.80
2022-08-16T16:25:56.504Z,11.77
2022-08-16T16:29:06.458Z,11.27
2022-08-16T16:31:16.947Z,10.80
2022-08-16T16:33:47.889Z,9.25
2022-08-16T16:36:28.170Z,11.15
2022-08-16T16:38:56.430Z,10.27
2022-08-16T16:41:25.540Z,9.65
2022-08-16T16:43:54.135Z,11.82
2022-08-16T16:46:39.206Z,13.27
2022-08-16T16:49:11.456Z,11.85
2022-08-16T16:51:40.567Z,11.20
2022-08-16T16:54:09.364Z,17.73
2022-08-16T16:56:40.049Z,10.75
2022-08-16T16:59:20.085Z,9.68
2022-08-16T17:01:57.407Z,15.35
2022-08-16T17:04:39.052Z,12.55
2022-08-16T17:07:10.880Z,10.40
2022-08-16T17:09:40.760Z,12.35
2022-08-16T17:12:09.584Z,12.13
2022-08-16T17:14:38.560Z,12.57
2022-08-16T17:17:09.632Z,8.85
2022-08-16T17:19:40.746Z,11.82
2022-08-16T17:24:44.722Z,14.85
2022-08-16T17:27:17.739Z,10.80
2022-08-16T17:29:47.621Z,11.30
2022-08-16T17:32:33.606Z,10.07
2022-08-16T17:35:18.196Z,11.35
2022-08-16T17:37:50.806Z,8.65
2022-08-16T17:40:47.433Z,11.10
2022-08-16T17:43:28.540Z,10.80
2022-08-16T17:45:56.251Z,11.40
2022-08-16T17:48:23.263Z,16.35
2022-08-16T17:50:54.494Z,12.68
2022-08-16T17:53:22.197Z,9.10
2022-08-16T17:55:50.465Z,14.38
2022-08-16T17:58:23.725Z,10.73
2022-08-16T18:00:56.683Z,15.52
2022-08-16T18:04:02.392Z,12.77
2022-08-16T18:06:24.464Z,15.52
2022-08-16T18:09:00.283Z,16.08
2022-08-16T18:11:34.712Z,13.10
2022-08-16T18:14:01.709Z,13.48
2022-08-16T18:16:28.669Z,13.25
2022-08-16T18:18:55.752Z,11.10
2022-08-16T18:21:52.676Z,13.82
2022-08-16T18:24:19.617Z,12.25
2022-08-16T18:26:46.793Z,12.98
2022-08-16T18:29:14.004Z,13.52
2022-08-16T18:31:41.083Z,14.70
2022-08-16T18:34:08.172Z,11.13
2022-08-16T18:36:35.171Z,12.63
2022-08-16T18:39:02.205Z,14.32
2022-08-16T18:41:30.406Z,17.73
2022-08-16T18:44:26.510Z,18.50
2022-08-16T18:46:51.103Z,15.70
2022-08-16T18:49:18.977Z,22.23
2022-08-16T18:51:47.367Z,15.20
2022-08-16T18:54:18.202Z,14.98
2022-08-16T18:56:55.702Z,16.63
2022-08-16T18:59:25.267Z,17.88
2022-08-16T19:01:53.991Z,15.30
2022-08-16T19:04:56.196Z,20.30
2022-08-16T19:07:13.921Z,19.50
2022-08-16T19:09:41.152Z,20.50
2022-08-16T19:12:08.846Z,17.90
2022-08-16T19:14:36.177Z,20.08
2022-08-16T19:17:03.319Z,17.00
2022-08-16T19:19:30.147Z,18.92
2022-08-16T19:21:57.472Z,18.55
2022-08-16T19:24:29.304Z,18.23
2022-08-16T19:26:57.196Z,21.85
2022-08-16T19:29:24.526Z,20.98
2022-08-16T19:31:51.311Z,17.30
2022-08-16T19:34:18.152Z,14.93
2022-08-16T19:36:45.103Z,17.95
2022-08-16T19:39:14.796Z,17.05
2022-08-16T19:41:44.591Z,17.92
2022-08-16T19:44:11.548Z,15.50
2022-08-16T19:46:41.652Z,16.15
2022-08-16T19:49:08.556Z,13.38
2022-08-16T19:51:35.500Z,18.35
2022-08-16T19:54:04.584Z,19.48
2022-08-16T19:56:31.470Z,14.55
2022-08-16T20:01:46.298Z,15.73
2022-08-16T20:04:13.623Z,17.85
2022-08-16T20:06:42.215Z,31.70
2022-08-16T20:09:10.958Z,36.30
2022-08-16T20:11:43.222Z,22.42
2022-08-16T20:14:12.021Z,19.60
2022-08-16T20:16:52.167Z,20.45
2022-08-16T20:19:23.226Z,16.63
2022-08-16T20:21:54.295Z,16.80
2022-08-16T20:24:36.820Z,16.27
2022-08-16T20:27:06.479Z,20.30
2022-08-16T20:29:33.746Z,19.98
2022-08-16T20:32:07.973Z,17.48
2022-08-16T20:34:35.084Z,14.60
2022-08-16T20:37:02.190Z,13.88
2022-08-16T20:39:32.937Z,16.42
2022-08-16T20:44:44.641Z,13.50
2022-08-16T20:47:13.787Z,22.08
2022-08-16T20:49:43.843Z,22.52
2022-08-16T20:52:12.867Z,15.57
2022-08-16T20:54:53.774Z,18.80
2022-08-16T20:57:21.346Z,18.33
2022-08-16T20:59:51.347Z,19.88
2022-08-16T21:02:25.382Z,21.02
2022-08-16T21:04:52.613Z,19.23
2022-08-16T21:07:22.122Z,18.20
2022-08-16T21:09:49.339Z,17.70
2022-08-16T21:12:17.957Z,18.38
2022-08-16T21:14:45.528Z,19.50
2022-08-16T21:17:13.597Z,20.63
2022-08-16T21:19:41.159Z,19.33
2022-08-16T21:22:12.539Z,19.88
2022-08-16T21:24:39.884Z,22.40
2022-08-16T21:27:07.054Z,14.95
2022-08-16T21:29:42.857Z,15.52
2022-08-16T21:32:14.502Z,24.08
2022-08-16T21:34:42.458Z,15.83
2022-08-16T21:37:09.538Z,13.88
2022-08-16T21:39:36.592Z,21.10
2022-08-16T21:42:11.568Z,22.23
2022-08-16T21:44:39.299Z,20.42
2022-08-16T21:47:06.857Z,22.23
2022-08-16T21:49:36.696Z,18.15
2022-08-16T21:52:04.581Z,14.68
2022-08-16T21:54:31.478Z,15.07
2022-08-16T21:56:58.334Z,17.33
2022-08-16T21:59:25.180Z,15.23
2022-08-16T22:01:52.197Z,13.73
2022-08-16T22:04:36.532Z,17.42
2022-08-16T22:07:07.128Z,14.88
2022-08-16T22:09:34.127Z,14.90
2022-08-16T22:12:01.013Z,16.80
2022-08-16T22:14:27.887Z,14.15
2022-08-16T22:16:55.975Z,16.45
2022-08-16T22:19:23.551Z,16.48
2022-08-16T22:21:50.654Z,18.10
2022-08-16T22:24:17.634Z,15.20
2022-08-16T22:26:44.551Z,17.77
2022-08-16T22:29:13.929Z,18.00
2022-08-16T22:31:41.548Z,22.58
2022-08-16T22:34:09.163Z,19.75
2022-08-16T22:36:36.396Z,17.27
2022-08-16T22:39:08.218Z,16.58
2022-08-16T22:41:36.540Z,13.90
2022-08-16T22:44:05.209Z,16.92
2022-08-16T22:46:34.781Z,17.58
2022-08-16T22:49:01.733Z,15.82
2022-08-16T22:51:28.901Z,13.43
2022-08-16T22:53:56.709Z,14.23
2022-08-16T22:56:24.800Z,12.63
2022-08-16T22:58:52.071Z,19.38
2022-08-16T23:01:21.177Z,16.20
2022-08-16T23:03:48.294Z,13.65
2022-08-16T23:06:15.834Z,19.63
2022-08-16T23:08:44.088Z,15.45
2022-08-16T23:11:23.130Z,16.60
2022-08-16T23:13:53.545Z,15.18
2022-08-16T23:16:23.214Z,14.45
2022-08-16T23:18:53.442Z,17.88
2022-08-16T23:21:20.967Z,16.85
2022-08-16T23:23:48.998Z,17.42
2022-08-16T23:26:44.773Z,20.02
2022-08-16T23:29:05.429Z,15.50
2022-08-16T23:31:33.066Z,16.92
2022-08-16T23:34:00.403Z,20.45
2022-08-16T23:36:27.273Z,15.15
2022-08-16T23:38:54.086Z,18.55
2022-08-16T23:41:21.084Z,18.33
2022-08-16T23:43:47.968Z,18.23
2022-08-16T23:46:17.358Z,21.45
2022-08-16T23:49:56.291Z,16.50
2022-08-16T23:51:32.298Z,19.40
2022-08-16T23:54:00.011Z,22.73
2022-08-16T23:56:27.010Z,20.05
2022-08-16T23:59:02.967Z,19.15
